sensor_id;sensor_type;location;lat;lon;timestamp;temperature;humidity
8676;DHT22;4375;52.486;13.424;2022-10-16T00:00:42;15.00;99.90
8676;DHT22;4375;52.486;13.424;2022-10-16T00:03:11;15.00;99.90
8676;DHT22;4375;52.486;13.424;2022-10-16T00:05:44;15.10;99.90
8676;DHT22;4375;52.486;13.424;2022-10-16T00:08:11;15.10;99.90
8676;DHT22;4375;52.486;13.424;2022-10-16T00:10:37;15.10;99.90
8676;DHT22;4375;52.486;13.424;2022-10-16T00:13:04;15.10;99.90
8676;DHT22;4375;52.486;13.424;2022-10-16T00:15:30;15.10;99.90
8676;DHT22;4375;52.486;13.424;2022-10-16T00:17:56;15.10;99.90
8676;DHT22;4375;52.486;13.424;2022-10-16T00:20:21;15.10;99.90
8676;DHT22;4375;52.486;13.424;2022-10-16T00:22:47;15.20;99.90
8676;DHT22;4375;52.486;13.424;2022-10-16T00:25:12;15.20;99.90
8676;DHT22;4375;52.486;13.424;2022-10-16T00:27:38;15.10;99.90
8676;DHT22;4375;52.486;13.424;2022-10-16T00:30:04;15.20;99.90
8676;DHT22;4375;52.486;13.424;2022-10-16T00:32:30;15.20;99.90
8676;DHT22;4375;52.486;13.424;2022-10-16T00:34:56;15.20;99.90
8676;DHT22;4375;52.486;13.424;2022-10-16T00:37:21;15.30;99.90
8676;DHT22;4375;52.486;13.424;2022-10-16T00:39:47;15.30;99.90
8676;DHT22;4375;52.486;13.424;2022-10-16T00:42:17;15.30;99.90
8676;DHT22;4375;52.486;13.424;2022-10-16T00:44:55;15.30;99.90
8676;DHT22;4375;52.486;13.424;2022-10-16T00:50:48;15.30;99.90
8676;DHT22;4375;52.486;13.424;2022-10-16T00:52:56;15.40;99.90
8676;DHT22;4375;52.486;13.424;2022-10-16T00:55:23;15.40;99.90
8676;DHT22;4375;52.486;13.424;2022-10-16T00:57:50;15.40;99.90
8676;DHT22;4375;52.486;13.424;2022-10-16T01:00:21;15.40;99.90
8676;DHT22;4375;52.486;13.424;2022-10-16T01:02:57;15.40;99.90
8676;DHT22;4375;52.486;13.424;2022-10-16T01:05:49;15.30;99.90
8676;DHT22;4375;52.486;13.424;2022-10-16T01:08:25;15.40;99.90
8676;DHT22;4375;52.486;13.424;2022-10-16T01:11:07;15.40;99.90
8676;DHT22;4375;52.486;13.424;2022-10-16T01:13:41;15.30;99.90
8676;DHT22;4375;52.486;13.424;2022-10-16T01:22:10;15.30;99.90
8676;DHT22;4375;52.486;13.424;2022-10-16T01:24:41;15.20;99.90
8676;DHT22;4375;52.486;13.424;2022-10-16T01:30:17;15.20;99.90
8676;DHT22;4375;52.486;13.424;2022-10-16T01:35:37;15.10;99.90
8676;DHT22;4375;52.486;13.424;2022-10-16T01:38:17;15.10;99.90
8676;DHT22;4375;52.486;13.424;2022-10-16T01:40:52;15.10;99.90
8676;DHT22;4375;52.486;13.424;2022-10-16T01:43:28;15.10;99.90
8676;DHT22;4375;52.486;13.424;2022-10-16T01:45:57;15.10;99.90
8676;DHT22;4375;52.486;13.424;2022-10-16T01:48:24;15.10;99.90
8676;DHT22;4375;52.486;13.424;2022-10-16T01:51:16;15.10;99.90
8676;DHT22;4375;52.486;13.424;2022-10-16T01:53:49;15.00;99.90
8676;DHT22;4375;52.486;13.424;2022-10-16T01:56:17;15.00;99.90
8676;DHT22;4375;52.486;13.424;2022-10-16T01:58:58;15.00;99.90
8676;DHT22;4375;52.486;13.424;2022-10-16T02:01:28;15.00;99.90
8676;DHT22;4375;52.486;13.424;2022-10-16T02:03:58;15.10;99.90
8676;DHT22;4375;52.486;13.424;2022-10-16T02:06:27;15.10;99.90
8676;DHT22;4375;52.486;13.424;2022-10-16T02:08:53;15.10;99.90
8676;DHT22;4375;52.486;13.424;2022-10-16T02:11:19;15.10;99.90
8676;DHT22;4375;52.486;13.424;2022-10-16T02:14:00;15.20;99.90
8676;DHT22;4375;52.486;13.424;2022-10-16T02:16:34;15.20;99.90
8676;DHT22;4375;52.486;13.424;2022-10-16T02:19:00;15.30;99.90
8676;DHT22;4375;52.486;13.424;2022-10-16T02:21:29;15.30;99.90
8676;DHT22;4375;52.486;13.424;2022-10-16T02:26:48;15.30;99.90
8676;DHT22;4375;52.486;13.424;2022-10-16T02:29:18;15.30;99.90
8676;DHT22;4375;52.486;13.424;2022-10-16T02:31:49;15.30;99.90
8676;DHT22;4375;52.486;13.424;2022-10-16T02:34:16;15.30;99.90
8676;DHT22;4375;52.486;13.424;2022-10-16T02:36:44;15.30;99.90
8676;DHT22;4375;52.486;13.424;2022-10-16T02:39:11;15.30;99.90
8676;DHT22;4375;52.486;13.424;2022-10-16T02:41:37;15.40;99.90
8676;DHT22;4375;52.486;13.424;2022-10-16T02:44:03;15.30;99.90
8676;DHT22;4375;52.486;13.424;2022-10-16T02:46:29;15.40;99.90
8676;DHT22;4375;52.486;13.424;2022-10-16T02:48:55;15.30;99.90
8676;DHT22;4375;52.486;13.424;2022-10-16T02:51:20;15.40;99.90
8676;DHT22;4375;52.486;13.424;2022-10-16T02:53:46;15.40;99.90
8676;DHT22;4375;52.486;13.424;2022-10-16T02:56:12;15.40;99.90
8676;DHT22;4375;52.486;13.424;2022-10-16T02:58:37;15.30;99.90
8676;DHT22;4375;52.486;13.424;2022-10-16T03:01:03;15.30;99.90
8676;DHT22;4375;52.486;13.424;2022-10-16T03:03:29;15.40;99.90
8676;DHT22;4375;52.486;13.424;2022-10-16T03:05:54;15.30;99.90
8676;DHT22;4375;52.486;13.424;2022-10-16T03:08:20;15.30;99.90
8676;DHT22;4375;52.486;13.424;2022-10-16T03:10:49;15.20;99.90
8676;DHT22;4375;52.486;13.424;2022-10-16T03:13:14;15.20;99.90
8676;DHT22;4375;52.486;13.424;2022-10-16T03:15:40;15.20;99.90
8676;DHT22;4375;52.486;13.424;2022-10-16T03:18:06;15.20;99.90
8676;DHT22;4375;52.486;13.424;2022-10-16T03:20:31;15.20;99.90
8676;DHT22;4375;52.486;13.424;2022-10-16T03:22:57;15.20;99.90
8676;DHT22;4375;52.486;13.424;2022-10-16T03:25:23;15.20;99.90
8676;DHT22;4375;52.486;13.424;2022-10-16T03:27:48;15.10;99.90
8676;DHT22;4375;52.486;13.424;2022-10-16T03:30:14;15.10;99.90
8676;DHT22;4375;52.486;13.424;2022-10-16T03:32:40;15.10;99.90
8676;DHT22;4375;52.486;13.424;2022-10-16T03:35:06;15.10;99.90
8676;DHT22;4375;52.486;13.424;2022-10-16T03:37:32;15.00;99.90
8676;DHT22;4375;52.486;13.424;2022-10-16T03:39:57;15.00;99.90
8676;DHT22;4375;52.486;13.424;2022-10-16T03:42:23;15.00;99.90
8676;DHT22;4375;52.486;13.424;2022-10-16T03:44:49;15.00;99.90
8676;DHT22;4375;52.486;13.424;2022-10-16T03:47:15;15.00;99.90
8676;DHT22;4375;52.486;13.424;2022-10-16T03:49:41;15.00;99.90
8676;DHT22;4375;52.486;13.424;2022-10-16T03:52:06;15.00;99.90
8676;DHT22;4375;52.486;13.424;2022-10-16T03:54:32;14.90;99.90
8676;DHT22;4375;52.486;13.424;2022-10-16T03:56:58;14.90;99.90
8676;DHT22;4375;52.486;13.424;2022-10-16T03:59:23;14.90;99.90
8676;DHT22;4375;52.486;13.424;2022-10-16T04:01:49;14.90;99.90
8676;DHT22;4375;52.486;13.424;2022-10-16T04:04:14;14.90;99.90
8676;DHT22;4375;52.486;13.424;2022-10-16T04:06:40;14.90;99.90
8676;DHT22;4375;52.486;13.424;2022-10-16T04:09:06;14.90;99.90
8676;DHT22;4375;52.486;13.424;2022-10-16T04:11:31;14.90;99.90
8676;DHT22;4375;52.486;13.424;2022-10-16T04:13:57;14.80;99.90
8676;DHT22;4375;52.486;13.424;2022-10-16T04:16:22;14.80;99.90
8676;DHT22;4375;52.486;13.424;2022-10-16T04:18:48;14.90;99.90
8676;DHT22;4375;52.486;13.424;2022-10-16T04:21:14;14.80;99.90
8676;DHT22;4375;52.486;13.424;2022-10-16T04:23:42;14.80;99.90
8676;DHT22;4375;52.486;13.424;2022-10-16T04:26:08;14.90;99.90
8676;DHT22;4375;52.486;13.424;2022-10-16T04:28:34;14.80;99.90
8676;DHT22;4375;52.486;13.424;2022-10-16T04:30:59;14.80;99.90
8676;DHT22;4375;52.486;13.424;2022-10-16T04:33:25;14.80;99.90
8676;DHT22;4375;52.486;13.424;2022-10-16T04:35:58;14.80;99.90
8676;DHT22;4375;52.486;13.424;2022-10-16T04:38:24;14.80;99.90
8676;DHT22;4375;52.486;13.424;2022-10-16T04:40:49;14.80;99.90
8676;DHT22;4375;52.486;13.424;2022-10-16T04:43:15;14.80;99.90
8676;DHT22;4375;52.486;13.424;2022-10-16T04:45:41;14.70;99.90
8676;DHT22;4375;52.486;13.424;2022-10-16T04:48:07;14.70;99.90
8676;DHT22;4375;52.486;13.424;2022-10-16T04:50:32;14.70;99.90
8676;DHT22;4375;52.486;13.424;2022-10-16T04:52:58;14.70;99.90
8676;DHT22;4375;52.486;13.424;2022-10-16T04:55:24;14.70;99.90
8676;DHT22;4375;52.486;13.424;2022-10-16T04:57:49;14.70;99.90
8676;DHT22;4375;52.486;13.424;2022-10-16T05:00:15;14.60;99.90
8676;DHT22;4375;52.486;13.424;2022-10-16T05:02:41;14.60;99.90
8676;DHT22;4375;52.486;13.424;2022-10-16T05:05:07;14.60;99.90
8676;DHT22;4375;52.486;13.424;2022-10-16T05:07:32;14.60;99.90
8676;DHT22;4375;52.486;13.424;2022-10-16T05:09:58;14.60;99.90
8676;DHT22;4375;52.486;13.424;2022-10-16T05:12:23;14.50;99.90
8676;DHT22;4375;52.486;13.424;2022-10-16T05:14:49;14.50;99.90
8676;DHT22;4375;52.486;13.424;2022-10-16T05:17:15;14.40;99.90
8676;DHT22;4375;52.486;13.424;2022-10-16T05:19:40;14.40;99.90
8676;DHT22;4375;52.486;13.424;2022-10-16T05:22:06;14.50;99.90
8676;DHT22;4375;52.486;13.424;2022-10-16T05:24:31;14.40;99.90
8676;DHT22;4375;52.486;13.424;2022-10-16T05:26:57;14.40;99.90
8676;DHT22;4375;52.486;13.424;2022-10-16T05:29:23;14.40;99.90
8676;DHT22;4375;52.486;13.424;2022-10-16T05:31:53;14.40;99.90
8676;DHT22;4375;52.486;13.424;2022-10-16T05:34:19;14.40;99.90
8676;DHT22;4375;52.486;13.424;2022-10-16T05:36:45;14.40;99.90
8676;DHT22;4375;52.486;13.424;2022-10-16T05:39:11;14.40;99.90
8676;DHT22;4375;52.486;13.424;2022-10-16T05:41:37;14.40;99.90
8676;DHT22;4375;52.486;13.424;2022-10-16T05:44:05;14.40;99.90
8676;DHT22;4375;52.486;13.424;2022-10-16T05:46:32;14.40;99.90
8676;DHT22;4375;52.486;13.424;2022-10-16T05:48:58;14.40;99.90
8676;DHT22;4375;52.486;13.424;2022-10-16T05:51:24;14.50;99.90
8676;DHT22;4375;52.486;13.424;2022-10-16T05:53:49;14.50;99.90
8676;DHT22;4375;52.486;13.424;2022-10-16T05:56:15;14.50;99.90
8676;DHT22;4375;52.486;13.424;2022-10-16T05:58:41;14.50;99.90
8676;DHT22;4375;52.486;13.424;2022-10-16T06:01:17;14.60;99.90
8676;DHT22;4375;52.486;13.424;2022-10-16T06:03:44;14.50;99.90
8676;DHT22;4375;52.486;13.424;2022-10-16T06:06:11;14.50;99.90
8676;DHT22;4375;52.486;13.424;2022-10-16T06:08:38;14.40;99.90
8676;DHT22;4375;52.486;13.424;2022-10-16T06:11:06;14.50;99.90
8676;DHT22;4375;52.486;13.424;2022-10-16T06:13:32;14.40;99.90
8676;DHT22;4375;52.486;13.424;2022-10-16T06:15:59;14.50;99.90
8676;DHT22;4375;52.486;13.424;2022-10-16T06:18:26;14.50;99.90
8676;DHT22;4375;52.486;13.424;2022-10-16T06:20:52;14.60;99.90
8676;DHT22;4375;52.486;13.424;2022-10-16T06:23:18;14.70;99.90
8676;DHT22;4375;52.486;13.424;2022-10-16T06:25:43;14.70;99.90
8676;DHT22;4375;52.486;13.424;2022-10-16T06:28:13;14.70;99.90
8676;DHT22;4375;52.486;13.424;2022-10-16T06:30:39;14.80;99.90
8676;DHT22;4375;52.486;13.424;2022-10-16T06:33:05;14.80;99.90
8676;DHT22;4375;52.486;13.424;2022-10-16T06:35:30;14.80;99.90
8676;DHT22;4375;52.486;13.424;2022-10-16T06:37:57;14.90;99.90
8676;DHT22;4375;52.486;13.424;2022-10-16T06:40:23;14.90;99.90
8676;DHT22;4375;52.486;13.424;2022-10-16T06:42:48;15.00;99.90
8676;DHT22;4375;52.486;13.424;2022-10-16T06:45:14;15.00;99.90
8676;DHT22;4375;52.486;13.424;2022-10-16T06:47:40;15.10;99.90
8676;DHT22;4375;52.486;13.424;2022-10-16T06:50:05;15.10;99.90
8676;DHT22;4375;52.486;13.424;2022-10-16T06:52:33;15.10;99.90
8676;DHT22;4375;52.486;13.424;2022-10-16T06:54:59;15.10;99.90
8676;DHT22;4375;52.486;13.424;2022-10-16T06:57:25;15.10;99.90
8676;DHT22;4375;52.486;13.424;2022-10-16T06:59:50;15.20;99.90
8676;DHT22;4375;52.486;13.424;2022-10-16T07:02:16;15.20;99.90
8676;DHT22;4375;52.486;13.424;2022-10-16T07:04:42;15.30;99.90
8676;DHT22;4375;52.486;13.424;2022-10-16T07:07:07;15.30;99.90
8676;DHT22;4375;52.486;13.424;2022-10-16T07:09:33;15.40;99.90
8676;DHT22;4375;52.486;13.424;2022-10-16T07:11:58;15.50;99.90
8676;DHT22;4375;52.486;13.424;2022-10-16T07:14:24;15.70;99.90
8676;DHT22;4375;52.486;13.424;2022-10-16T07:16:50;15.90;99.90
8676;DHT22;4375;52.486;13.424;2022-10-16T07:19:16;16.00;99.90
8676;DHT22;4375;52.486;13.424;2022-10-16T07:21:43;16.20;99.90
8676;DHT22;4375;52.486;13.424;2022-10-16T07:24:15;16.30;99.90
8676;DHT22;4375;52.486;13.424;2022-10-16T07:26:42;16.30;99.90
8676;DHT22;4375;52.486;13.424;2022-10-16T07:29:19;16.20;99.90
8676;DHT22;4375;52.486;13.424;2022-10-16T07:31:46;16.30;99.90
8676;DHT22;4375;52.486;13.424;2022-10-16T07:34:13;16.40;99.90
8676;DHT22;4375;52.486;13.424;2022-10-16T07:36:39;16.50;99.90
8676;DHT22;4375;52.486;13.424;2022-10-16T07:39:05;16.50;99.90
8676;DHT22;4375;52.486;13.424;2022-10-16T07:41:31;16.60;99.90
8676;DHT22;4375;52.486;13.424;2022-10-16T07:43:58;16.70;99.90
8676;DHT22;4375;52.486;13.424;2022-10-16T07:46:25;16.70;99.90
8676;DHT22;4375;52.486;13.424;2022-10-16T07:48:52;16.70;99.90
8676;DHT22;4375;52.486;13.424;2022-10-16T07:51:22;16.60;99.90
8676;DHT22;4375;52.486;13.424;2022-10-16T07:53:48;16.60;99.90
8676;DHT22;4375;52.486;13.424;2022-10-16T07:56:15;16.60;99.90
8676;DHT22;4375;52.486;13.424;2022-10-16T07:58:41;16.70;99.90
8676;DHT22;4375;52.486;13.424;2022-10-16T08:01:08;16.60;99.90
8676;DHT22;4375;52.486;13.424;2022-10-16T08:03:35;16.60;99.90
8676;DHT22;4375;52.486;13.424;2022-10-16T08:06:01;16.60;99.90
8676;DHT22;4375;52.486;13.424;2022-10-16T08:08:27;16.60;99.90
8676;DHT22;4375;52.486;13.424;2022-10-16T08:10:53;16.60;99.90
8676;DHT22;4375;52.486;13.424;2022-10-16T08:13:19;16.70;99.90
8676;DHT22;4375;52.486;13.424;2022-10-16T08:15:45;16.80;99.90
8676;DHT22;4375;52.486;13.424;2022-10-16T08:18:13;16.80;99.90
8676;DHT22;4375;52.486;13.424;2022-10-16T08:20:39;16.80;99.90
8676;DHT22;4375;52.486;13.424;2022-10-16T08:23:06;16.90;99.90
8676;DHT22;4375;52.486;13.424;2022-10-16T08:25:34;17.00;99.90
8676;DHT22;4375;52.486;13.424;2022-10-16T08:28:00;17.00;99.90
8676;DHT22;4375;52.486;13.424;2022-10-16T08:30:26;17.10;99.90
8676;DHT22;4375;52.486;13.424;2022-10-16T08:32:52;17.10;99.90
8676;DHT22;4375;52.486;13.424;2022-10-16T08:35:17;17.20;99.90
8676;DHT22;4375;52.486;13.424;2022-10-16T08:37:43;17.20;99.90
8676;DHT22;4375;52.486;13.424;2022-10-16T08:40:33;17.30;99.90
8676;DHT22;4375;52.486;13.424;2022-10-16T08:48:50;17.30;99.90
8676;DHT22;4375;52.486;13.424;2022-10-16T08:51:23;17.40;99.90
8676;DHT22;4375;52.486;13.424;2022-10-16T08:53:56;17.40;99.90
8676;DHT22;4375;52.486;13.424;2022-10-16T08:56:23;17.50;99.90
8676;DHT22;4375;52.486;13.424;2022-10-16T08:58:49;17.50;99.90
8676;DHT22;4375;52.486;13.424;2022-10-16T09:01:17;17.50;99.90
8676;DHT22;4375;52.486;13.424;2022-10-16T09:06:50;17.40;99.90
8676;DHT22;4375;52.486;13.424;2022-10-16T09:20:03;18.10;99.90
8676;DHT22;4375;52.486;13.424;2022-10-16T09:22:33;18.10;99.90
8676;DHT22;4375;52.486;13.424;2022-10-16T09:25:13;18.00;99.90
8676;DHT22;4375;52.486;13.424;2022-10-16T09:27:40;18.00;99.90
8676;DHT22;4375;52.486;13.424;2022-10-16T09:30:14;18.00;99.90
8676;DHT22;4375;52.486;13.424;2022-10-16T09:32:40;18.20;99.90
8676;DHT22;4375;52.486;13.424;2022-10-16T09:35:14;18.30;99.90
8676;DHT22;4375;52.486;13.424;2022-10-16T09:37:42;18.30;99.90
8676;DHT22;4375;52.486;13.424;2022-10-16T09:40:13;18.40;99.90
8676;DHT22;4375;52.486;13.424;2022-10-16T09:42:39;18.30;99.90
8676;DHT22;4375;52.486;13.424;2022-10-16T09:45:05;18.20;99.90
8676;DHT22;4375;52.486;13.424;2022-10-16T09:47:32;18.30;99.90
8676;DHT22;4375;52.486;13.424;2022-10-16T09:50:19;18.40;99.90
8676;DHT22;4375;52.486;13.424;2022-10-16T09:52:45;18.50;99.90
8676;DHT22;4375;52.486;13.424;2022-10-16T09:55:16;18.40;99.90
8676;DHT22;4375;52.486;13.424;2022-10-16T09:57:49;18.40;99.90
8676;DHT22;4375;52.486;13.424;2022-10-16T10:00:16;18.20;99.90
8676;DHT22;4375;52.486;13.424;2022-10-16T10:02:43;18.30;99.90
8676;DHT22;4375;52.486;13.424;2022-10-16T10:05:25;18.20;99.90
8676;DHT22;4375;52.486;13.424;2022-10-16T10:07:57;18.20;99.90
8676;DHT22;4375;52.486;13.424;2022-10-16T10:10:28;18.10;99.90
8676;DHT22;4375;52.486;13.424;2022-10-16T10:12:55;18.10;99.90
8676;DHT22;4375;52.486;13.424;2022-10-16T10:15:22;18.20;99.90
8676;DHT22;4375;52.486;13.424;2022-10-16T10:17:57;18.30;99.90
8676;DHT22;4375;52.486;13.424;2022-10-16T10:20:32;18.40;99.90
8676;DHT22;4375;52.486;13.424;2022-10-16T10:23:01;18.50;99.90
8676;DHT22;4375;52.486;13.424;2022-10-16T10:25:39;18.70;99.90
8676;DHT22;4375;52.486;13.424;2022-10-16T10:31:41;19.00;99.90
8676;DHT22;4375;52.486;13.424;2022-10-16T10:36:41;19.20;99.90
8676;DHT22;4375;52.486;13.424;2022-10-16T10:39:13;19.10;99.90
8676;DHT22;4375;52.486;13.424;2022-10-16T10:41:56;19.20;99.90
8676;DHT22;4375;52.486;13.424;2022-10-16T10:59:00;19.50;99.90
8676;DHT22;4375;52.486;13.424;2022-10-16T11:01:46;19.30;99.90
8676;DHT22;4375;52.486;13.424;2022-10-16T11:06:55;19.20;99.90
8676;DHT22;4375;52.486;13.424;2022-10-16T11:09:30;19.20;99.90
8676;DHT22;4375;52.486;13.424;2022-10-16T11:14:36;19.50;99.90
8676;DHT22;4375;52.486;13.424;2022-10-16T11:17:23;19.60;99.90
8676;DHT22;4375;52.486;13.424;2022-10-16T11:19:56;19.50;99.90
8676;DHT22;4375;52.486;13.424;2022-10-16T11:22:40;19.60;99.90
8676;DHT22;4375;52.486;13.424;2022-10-16T11:25:23;19.70;99.90
8676;DHT22;4375;52.486;13.424;2022-10-16T11:30:31;19.60;99.90
8676;DHT22;4375;52.486;13.424;2022-10-16T11:35:44;19.80;99.90
8676;DHT22;4375;52.486;13.424;2022-10-16T11:38:26;19.80;99.90
8676;DHT22;4375;52.486;13.424;2022-10-16T11:40:56;19.80;99.90
8676;DHT22;4375;52.486;13.424;2022-10-16T11:43:37;19.70;99.90
8676;DHT22;4375;52.486;13.424;2022-10-16T11:46:16;19.50;99.90
8676;DHT22;4375;52.486;13.424;2022-10-16T11:51:35;19.40;99.90
8676;DHT22;4375;52.486;13.424;2022-10-16T11:56:29;19.20;99.90
8676;DHT22;4375;52.486;13.424;2022-10-16T11:59:02;19.10;99.90
8676;DHT22;4375;52.486;13.424;2022-10-16T12:01:41;19.00;99.90
8676;DHT22;4375;52.486;13.424;2022-10-16T12:04:39;18.90;99.90
8676;DHT22;4375;52.486;13.424;2022-10-16T12:07:24;18.80;99.90
8676;DHT22;4375;52.486;13.424;2022-10-16T12:09:50;18.80;99.90
8676;DHT22;4375;52.486;13.424;2022-10-16T12:17:47;18.80;99.90
8676;DHT22;4375;52.486;13.424;2022-10-16T12:22:51;18.80;99.90
8676;DHT22;4375;52.486;13.424;2022-10-16T12:25:37;18.90;99.90
8676;DHT22;4375;52.486;13.424;2022-10-16T12:28:22;19.00;99.90
8676;DHT22;4375;52.486;13.424;2022-10-16T12:31:02;19.10;99.90
8676;DHT22;4375;52.486;13.424;2022-10-16T12:33:30;19.10;99.90
8676;DHT22;4375;52.486;13.424;2022-10-16T12:35:59;19.20;99.90
8676;DHT22;4375;52.486;13.424;2022-10-16T12:38:28;19.30;99.90
8676;DHT22;4375;52.486;13.424;2022-10-16T12:43:41;19.30;99.90
8676;DHT22;4375;52.486;13.424;2022-10-16T12:48:42;19.20;99.90
8676;DHT22;4375;52.486;13.424;2022-10-16T12:54:12;19.20;99.90
8676;DHT22;4375;52.486;13.424;2022-10-16T12:59:26;19.30;99.90
8676;DHT22;4375;52.486;13.424;2022-10-16T13:02:07;19.20;99.90
8676;DHT22;4375;52.486;13.424;2022-10-16T13:04:43;19.20;99.90
8676;DHT22;4375;52.486;13.424;2022-10-16T13:07:26;19.20;99.90
8676;DHT22;4375;52.486;13.424;2022-10-16T13:29:09;19.40;99.90
8676;DHT22;4375;52.486;13.424;2022-10-16T13:31:37;19.20;99.90
8676;DHT22;4375;52.486;13.424;2022-10-16T13:34:05;19.10;99.90
8676;DHT22;4375;52.486;13.424;2022-10-16T13:36:42;19.00;99.90
8676;DHT22;4375;52.486;13.424;2022-10-16T13:39:28;19.00;99.90
8676;DHT22;4375;52.486;13.424;2022-10-16T13:42:05;19.00;99.90
8676;DHT22;4375;52.486;13.424;2022-10-16T13:44:37;19.00;99.90
8676;DHT22;4375;52.486;13.424;2022-10-16T13:47:05;18.90;99.90
8676;DHT22;4375;52.486;13.424;2022-10-16T13:49:30;18.90;99.90
8676;DHT22;4375;52.486;13.424;2022-10-16T13:51:58;18.90;99.90
8676;DHT22;4375;52.486;13.424;2022-10-16T13:54:25;18.90;99.90
8676;DHT22;4375;52.486;13.424;2022-10-16T13:56:52;18.90;99.90
8676;DHT22;4375;52.486;13.424;2022-10-16T14:01:51;18.80;99.90
8676;DHT22;4375;52.486;13.424;2022-10-16T14:04:19;18.70;99.90
8676;DHT22;4375;52.486;13.424;2022-10-16T14:06:46;18.60;99.90
8676;DHT22;4375;52.486;13.424;2022-10-16T14:09:24;18.60;99.90
8676;DHT22;4375;52.486;13.424;2022-10-16T14:12:02;18.60;99.90
8676;DHT22;4375;52.486;13.424;2022-10-16T14:14:38;18.60;99.90
8676;DHT22;4375;52.486;13.424;2022-10-16T14:17:05;18.60;99.90
8676;DHT22;4375;52.486;13.424;2022-10-16T14:19:31;18.50;99.90
8676;DHT22;4375;52.486;13.424;2022-10-16T14:21:58;18.60;99.90
8676;DHT22;4375;52.486;13.424;2022-10-16T14:24:34;18.60;99.90
8676;DHT22;4375;52.486;13.424;2022-10-16T14:27:01;18.50;99.90
8676;DHT22;4375;52.486;13.424;2022-10-16T14:29:28;18.40;99.90
8676;DHT22;4375;52.486;13.424;2022-10-16T14:34:35;18.50;99.90
8676;DHT22;4375;52.486;13.424;2022-10-16T14:37:09;18.50;99.90
8676;DHT22;4375;52.486;13.424;2022-10-16T14:39:39;18.40;99.90
8676;DHT22;4375;52.486;13.424;2022-10-16T14:42:14;18.40;99.90
8676;DHT22;4375;52.486;13.424;2022-10-16T14:44:41;18.40;99.90
8676;DHT22;4375;52.486;13.424;2022-10-16T14:47:14;18.50;99.90
8676;DHT22;4375;52.486;13.424;2022-10-16T14:49:42;18.50;99.90
8676;DHT22;4375;52.486;13.424;2022-10-16T14:52:12;18.50;99.90
8676;DHT22;4375;52.486;13.424;2022-10-16T14:54:38;18.50;99.90
8676;DHT22;4375;52.486;13.424;2022-10-16T14:57:04;18.40;99.90
8676;DHT22;4375;52.486;13.424;2022-10-16T14:59:38;18.30;99.90
8676;DHT22;4375;52.486;13.424;2022-10-16T15:02:27;18.30;99.90
8676;DHT22;4375;52.486;13.424;2022-10-16T15:04:53;18.30;99.90
8676;DHT22;4375;52.486;13.424;2022-10-16T15:07:19;18.30;99.90
8676;DHT22;4375;52.486;13.424;2022-10-16T15:09:44;18.30;99.90
8676;DHT22;4375;52.486;13.424;2022-10-16T15:12:10;18.30;99.90
8676;DHT22;4375;52.486;13.424;2022-10-16T15:14:36;18.30;99.90
8676;DHT22;4375;52.486;13.424;2022-10-16T15:17:02;18.20;99.90
8676;DHT22;4375;52.486;13.424;2022-10-16T15:19:28;18.20;99.90
8676;DHT22;4375;52.486;13.424;2022-10-16T15:21:54;18.10;99.90
8676;DHT22;4375;52.486;13.424;2022-10-16T15:24:19;18.10;99.90
8676;DHT22;4375;52.486;13.424;2022-10-16T15:26:45;18.00;99.90
8676;DHT22;4375;52.486;13.424;2022-10-16T15:29:14;18.00;99.90
8676;DHT22;4375;52.486;13.424;2022-10-16T15:31:40;17.90;99.90
8676;DHT22;4375;52.486;13.424;2022-10-16T15:34:09;17.90;99.90
8676;DHT22;4375;52.486;13.424;2022-10-16T15:36:37;17.80;99.90
8676;DHT22;4375;52.486;13.424;2022-10-16T15:39:04;17.80;99.90
8676;DHT22;4375;52.486;13.424;2022-10-16T15:41:31;17.70;99.90
8676;DHT22;4375;52.486;13.424;2022-10-16T15:43:56;17.60;99.90
8676;DHT22;4375;52.486;13.424;2022-10-16T15:46:23;17.60;99.90
8676;DHT22;4375;52.486;13.424;2022-10-16T15:48:50;17.50;99.90
8676;DHT22;4375;52.486;13.424;2022-10-16T15:51:17;17.40;99.90
8676;DHT22;4375;52.486;13.424;2022-10-16T15:53:43;17.30;99.90
8676;DHT22;4375;52.486;13.424;2022-10-16T15:56:11;17.30;99.90
8676;DHT22;4375;52.486;13.424;2022-10-16T15:58:37;17.20;99.90
8676;DHT22;4375;52.486;13.424;2022-10-16T16:01:03;17.10;99.90
8676;DHT22;4375;52.486;13.424;2022-10-16T16:03:30;17.00;99.90
8676;DHT22;4375;52.486;13.424;2022-10-16T16:05:57;17.00;99.90
8676;DHT22;4375;52.486;13.424;2022-10-16T16:08:23;16.90;99.90
8676;DHT22;4375;52.486;13.424;2022-10-16T16:11:09;16.90;99.90
8676;DHT22;4375;52.486;13.424;2022-10-16T16:13:35;16.80;99.90
8676;DHT22;4375;52.486;13.424;2022-10-16T16:16:06;16.70;99.90
8676;DHT22;4375;52.486;13.424;2022-10-16T16:18:32;16.60;99.90
8676;DHT22;4375;52.486;13.424;2022-10-16T16:20:57;16.60;99.90
8676;DHT22;4375;52.486;13.424;2022-10-16T16:23:23;16.50;99.90
8676;DHT22;4375;52.486;13.424;2022-10-16T16:26:14;16.40;99.90
8676;DHT22;4375;52.486;13.424;2022-10-16T16:28:41;16.40;99.90
8676;DHT22;4375;52.486;13.424;2022-10-16T16:31:08;16.30;99.90
8676;DHT22;4375;52.486;13.424;2022-10-16T16:33:34;16.20;99.90
8676;DHT22;4375;52.486;13.424;2022-10-16T16:36:02;16.20;99.90
8676;DHT22;4375;52.486;13.424;2022-10-16T16:38:29;16.10;99.90
8676;DHT22;4375;52.486;13.424;2022-10-16T16:40:55;16.10;99.90
8676;DHT22;4375;52.486;13.424;2022-10-16T16:43:25;16.00;99.90
8676;DHT22;4375;52.486;13.424;2022-10-16T16:45:51;16.00;99.90
8676;DHT22;4375;52.486;13.424;2022-10-16T16:48:17;15.90;99.90
8676;DHT22;4375;52.486;13.424;2022-10-16T16:50:42;15.90;99.90
8676;DHT22;4375;52.486;13.424;2022-10-16T16:53:08;15.80;99.90
8676;DHT22;4375;52.486;13.424;2022-10-16T16:55:33;15.80;99.90
8676;DHT22;4375;52.486;13.424;2022-10-16T16:58:00;15.70;99.90
8676;DHT22;4375;52.486;13.424;2022-10-16T17:00:25;15.70;99.90
8676;DHT22;4375;52.486;13.424;2022-10-16T17:02:51;15.70;99.90
8676;DHT22;4375;52.486;13.424;2022-10-16T17:05:17;15.70;99.90
8676;DHT22;4375;52.486;13.424;2022-10-16T17:07:43;15.60;99.90
8676;DHT22;4375;52.486;13.424;2022-10-16T17:10:09;15.60;99.90
8676;DHT22;4375;52.486;13.424;2022-10-16T17:12:35;15.50;99.90
8676;DHT22;4375;52.486;13.424;2022-10-16T17:15:01;15.50;99.90
8676;DHT22;4375;52.486;13.424;2022-10-16T17:17:27;15.40;99.90
8676;DHT22;4375;52.486;13.424;2022-10-16T17:19:53;15.40;99.90
8676;DHT22;4375;52.486;13.424;2022-10-16T17:22:19;15.40;99.90
8676;DHT22;4375;52.486;13.424;2022-10-16T17:24:48;15.30;99.90
8676;DHT22;4375;52.486;13.424;2022-10-16T17:27:15;15.30;99.90
8676;DHT22;4375;52.486;13.424;2022-10-16T17:29:41;15.20;99.90
8676;DHT22;4375;52.486;13.424;2022-10-16T17:32:06;15.20;99.90
8676;DHT22;4375;52.486;13.424;2022-10-16T17:34:32;15.20;99.90
8676;DHT22;4375;52.486;13.424;2022-10-16T17:37:00;15.10;99.90
8676;DHT22;4375;52.486;13.424;2022-10-16T17:39:25;15.10;99.90
8676;DHT22;4375;52.486;13.424;2022-10-16T17:41:51;15.10;99.90
8676;DHT22;4375;52.486;13.424;2022-10-16T17:44:16;15.10;99.90
8676;DHT22;4375;52.486;13.424;2022-10-16T17:46:50;15.00;99.90
8676;DHT22;4375;52.486;13.424;2022-10-16T17:49:16;15.00;99.90
8676;DHT22;4375;52.486;13.424;2022-10-16T17:51:42;15.00;99.90